Preliminary Forecasts
Issued by NWS San Diego, CA

Home | Current Version | Previous Version | Text Only | Print | Product List | Glossary On
Versions: 1 2
000
NZUS56 KSGX 151633
PRESGX

AF
KSAN 151720Z 1518/1624 VRB05KT 5SM HZ BKN008
     FM151900 28010KT P6SM SCT010
     FM160100 VRB03KT P6SM SKC
     FM160300 VRB03KT 6SM BR BKN008
     FM161200 VRB05KT P6SM BKN012
     FM161700 VRB05KT P6SM SCT012
     FM162100 29010KT P6SM SKC=

TAF
KCRQ 151720Z 1518/1618 VRB04KT P6SM SKC
     FM152000 25009KT P6SM FEW006
     FM160100 VRB03KT P6SM SCT007
     FM160400 VRB05KT 6SM BR BKN006
     FM160600 VRB03KT 2SM BR BKN004
     FM161600 VRB05KT 4SM HZ SCT006
     FM161700 VRB05KT P6SM SKC=

TAF
KSNA 151720Z 1518/1618 VRB03KT P6SM FEW009 FEW200
     FM152000 22009KT P6SM SKC
     FM160500 VRB03KT P6SM FEW009
     FM160800 VRB05KT P6SM BKN008
     FM161700 VRB05KT P6SM SCT012=

TAF
KONT 151720Z 1518/1624 VRB04KT P6SM FEW200
     FM152100 26011G18KT P6SM SKC
     FM160400 VRB04KT P6SM SKC
     FM160900 VRB05KT 6SM BR SKC
      TEMPO 1612/1615 2SM BR SCT004
     FM162100 26011G18KT P6SM SKC=

TAF
KPSP 151720Z 1518/1618 VRB06KT P6SM SKC
     FM160000 33012G22KT P6SM SKC
     FM161200 33006KT P6SM SKC=

TAF
KTRM 151720Z 1518/1618 VRB06KT P6SM SKC
     FM160500 33012G22KT P6SM SKC
     FM161200 33006KT P6SM SKC=






USA.gov is the U.S. government's official web portal to all federal, state and local government web resources and services.